Time;durP1;ratioP1;P1;durP2;ratioP2;P2;SDS_P1;SDS_P2;PMS_P1;PMS_P2;Temp;Humidity;BMP_temperature;BMP_pressure;BME280_temperature;BME280_humidity;BME280_pressure;Samples;Min_cycle;Max_cycle;Signal;HPM_P1;HPM_P2
2021/11/06 00:02:02;;;;;;;12.98;6.40;;;7.70;99.90;;;;;;5013748;28;20387;-77
2021/11/06 00:04:28;;;;;;;10.38;6.13;;;7.70;99.90;;;;;;5031461;28;20054;-76
2021/11/06 00:06:53;;;;;;;10.25;6.18;;;7.70;99.90;;;;;;5014829;28;20116;-73
2021/11/06 00:09:19;;;;;;;9.63;5.75;;;7.70;99.90;;;;;;5029940;28;20029;-74
2021/11/06 00:11:45;;;;;;;10.57;5.88;;;7.70;99.90;;;;;;5030207;28;20032;-74
2021/11/06 00:14:10;;;;;;;12.48;6.35;;;7.70;99.90;;;;;;5014408;28;20073;-74
2021/11/06 00:16:36;;;;;;;10.38;6.93;;;7.70;99.90;;;;;;5030419;28;20033;-74
2021/11/06 00:19:03;;;;;;;12.43;6.40;;;7.60;99.90;;;;;;5012387;28;20026;-74
2021/11/06 00:21:28;;;;;;;9.82;6.38;;;7.60;99.90;;;;;;5013493;28;20025;-75
2021/11/06 00:23:54;;;;;;;11.63;6.60;;;7.60;99.90;;;;;;5012963;28;20112;-76
2021/11/06 00:26:20;;;;;;;11.55;6.22;;;7.60;99.90;;;;;;5013520;28;20030;-75
2021/11/06 00:28:45;;;;;;;10.13;6.47;;;7.60;99.90;;;;;;5012975;28;20048;-76
2021/11/06 00:31:11;;;;;;;19.02;8.90;;;7.60;99.90;;;;;;5011687;28;20022;-76
2021/11/06 00:33:36;;;;;;;14.77;7.40;;;7.60;99.90;;;;;;5001569;28;20014;-74
2021/11/06 00:36:02;;;;;;;14.38;6.47;;;7.50;99.90;;;;;;5012025;28;20037;-73
2021/11/06 00:38:28;;;;;;;13.82;7.53;;;7.50;99.90;;;;;;5029047;28;20024;-74
2021/11/06 00:40:54;;;;;;;13.05;6.95;;;7.60;99.90;;;;;;5013678;28;20056;-74
2021/11/06 00:43:20;;;;;;;14.27;8.55;;;7.50;99.90;;;;;;5013564;28;20025;-73
2021/11/06 00:45:45;;;;;;;13.55;7.60;;;7.50;99.90;;;;;;5013326;28;20088;-75
2021/11/06 00:48:11;;;;;;;15.27;8.50;;;7.50;99.90;;;;;;5026279;28;20018;-75
2021/11/06 00:50:37;;;;;;;10.07;6.70;;;7.50;99.90;;;;;;5028976;28;20018;-74
2021/11/06 00:53:03;;;;;;;10.73;6.18;;;7.60;99.90;;;;;;5028167;28;20028;-74
2021/11/06 00:55:29;;;;;;;11.30;6.75;;;7.50;99.90;;;;;;5028555;28;20029;-74
2021/11/06 00:57:55;;;;;;;11.63;7.18;;;7.60;99.90;;;;;;5012956;28;20030;-75
2021/11/06 01:00:21;;;;;;;12.80;6.45;;;7.60;99.90;;;;;;5010152;28;20048;-73
2021/11/06 01:02:48;;;;;;;11.80;6.50;;;7.50;99.90;;;;;;5028080;28;20156;-74
2021/11/06 01:05:16;;;;;;;13.52;7.18;;;7.50;99.90;;;;;;5012276;28;20025;-74
2021/11/06 01:07:42;;;;;;;11.15;6.90;;;7.50;99.90;;;;;;5008660;28;20025;-74
2021/11/06 01:10:10;;;;;;;9.38;6.30;;;7.50;99.90;;;;;;5027953;28;20022;-73
2021/11/06 01:12:37;;;;;;;10.52;5.88;;;7.50;99.90;;;;;;5014374;28;20105;-73
2021/11/06 01:15:04;;;;;;;9.15;5.50;;;7.50;99.90;;;;;;5013306;28;20540;-74
2021/11/06 01:17:30;;;;;;;11.48;6.65;;;7.60;99.90;;;;;;4994476;28;20026;-74
2021/11/06 01:19:55;;;;;;;11.35;6.50;;;7.50;99.90;;;;;;5011057;28;20018;-74
2021/11/06 01:22:21;;;;;;;11.27;5.95;;;7.50;99.90;;;;;;5014435;28;20021;-74
2021/11/06 01:24:47;;;;;;;10.75;5.78;;;7.40;99.90;;;;;;5012392;28;20042;-74
2021/11/06 01:27:12;;;;;;;8.10;5.22;;;7.40;99.90;;;;;;5012958;28;20036;-74
2021/11/06 01:29:38;;;;;;;8.80;5.85;;;7.50;99.90;;;;;;5000439;28;20027;-74
2021/11/06 01:32:06;;;;;;;9.13;5.03;;;7.50;99.90;;;;;;4992766;28;20026;-74
2021/11/06 01:34:33;;;;;;;9.73;5.53;;;7.60;99.90;;;;;;4994546;28;20514;-74
2021/11/06 01:36:58;;;;;;;9.48;5.45;;;7.50;99.90;;;;;;4993889;28;20034;-74
2021/11/06 01:39:24;;;;;;;7.88;5.25;;;7.50;99.90;;;;;;4993109;28;20022;-73
2021/11/06 01:41:50;;;;;;;9.73;5.18;;;7.50;99.90;;;;;;4992745;28;20371;-74
2021/11/06 01:44:15;;;;;;;9.38;5.13;;;7.60;99.90;;;;;;4993283;28;20382;-74
2021/11/06 01:46:41;;;;;;;9.85;5.50;;;7.60;99.90;;;;;;4993167;28;20038;-73
2021/11/06 01:49:07;;;;;;;9.38;5.55;;;7.50;99.90;;;;;;4993787;28;20029;-74
2021/11/06 01:51:33;;;;;;;9.27;5.88;;;7.50;99.90;;;;;;4993015;28;20402;-74
2021/11/06 01:53:58;;;;;;;9.38;5.85;;;7.50;99.90;;;;;;4995236;28;20022;-74
2021/11/06 01:56:24;;;;;;;8.15;5.28;;;7.50;99.90;;;;;;5012407;28;20065;-74
2021/11/06 01:58:50;;;;;;;9.55;5.13;;;7.50;99.90;;;;;;5011849;28;20042;-74
2021/11/06 02:01:16;;;;;;;9.95;5.93;;;7.50;99.90;;;;;;5012476;28;20025;-74
2021/11/06 02:03:41;;;;;;;12.32;6.63;;;7.50;99.90;;;;;;5012352;28;20018;-73
2021/11/06 02:06:07;;;;;;;8.32;5.15;;;7.50;99.90;;;;;;5011965;28;20029;-74
2021/11/06 02:08:33;;;;;;;7.50;4.80;;;7.50;99.90;;;;;;5012523;28;20112;-74
2021/11/06 02:10:59;;;;;;;7.22;4.75;;;7.50;99.90;;;;;;5011863;28;20033;-74
2021/11/06 02:13:24;;;;;;;7.05;4.30;;;7.50;99.90;;;;;;5012068;28;20022;-74
2021/11/06 02:15:50;;;;;;;9.20;5.00;;;7.50;99.90;;;;;;5012657;28;20034;-75
2021/11/06 02:18:16;;;;;;;9.30;4.97;;;7.50;99.90;;;;;;5012363;28;20026;-74
2021/11/06 02:20:47;;;;;;;7.68;4.63;;;7.40;99.90;;;;;;5012156;28;20022;-74
2021/11/06 02:23:13;;;;;;;7.45;4.55;;;7.30;99.90;;;;;;5013082;28;20026;-74
2021/11/06 02:25:39;;;;;;;8.15;4.70;;;7.30;99.90;;;;;;5012069;28;20034;-74
2021/11/06 02:28:05;;;;;;;8.52;4.63;;;7.30;99.90;;;;;;5011568;28;20410;-74
2021/11/06 02:30:31;;;;;;;8.82;4.65;;;7.20;99.90;;;;;;5012973;28;20033;-73
2021/11/06 02:32:57;;;;;;;8.23;4.78;;;7.10;99.90;;;;;;5011453;28;20363;-74
2021/11/06 02:35:23;;;;;;;7.75;4.82;;;7.00;99.90;;;;;;5011944;28;20041;-74
2021/11/06 02:37:49;;;;;;;7.55;4.55;;;7.10;99.90;;;;;;5013574;28;20542;-73
2021/11/06 02:40:15;;;;;;;7.10;4.63;;;7.10;99.90;;;;;;5013177;28;20033;-74
2021/11/06 02:42:41;;;;;;;7.93;4.43;;;7.10;99.90;;;;;;5012103;28;20113;-74
2021/11/06 02:45:09;;;;;;;12.40;5.10;;;7.00;99.90;;;;;;5011404;28;20076;-74
2021/11/06 02:47:35;;;;;;;11.82;5.00;;;7.00;99.90;;;;;;5013080;28;20097;-74
2021/11/06 02:50:01;;;;;;;7.95;4.82;;;7.00;99.90;;;;;;5011354;28;20088;-74
2021/11/06 02:52:27;;;;;;;10.40;4.60;;;6.90;99.90;;;;;;5011730;28;20109;-74
2021/11/06 02:54:52;;;;;;;7.30;4.63;;;6.80;99.90;;;;;;5011307;28;20073;-75
2021/11/06 02:57:18;;;;;;;8.90;4.53;;;6.70;99.90;;;;;;5012977;28;20092;-74
2021/11/06 02:59:44;;;;;;;7.90;4.47;;;6.60;99.90;;;;;;5012996;28;20077;-74
2021/11/06 03:02:10;;;;;;;6.47;4.53;;;6.60;99.90;;;;;;5011267;28;20026;-74
2021/11/06 03:04:37;;;;;;;7.30;4.10;;;6.60;99.90;;;;;;5011798;28;20072;-74
2021/11/06 03:07:04;;;;;;;7.33;4.83;;;6.60;99.90;;;;;;5012480;28;20036;-74
2021/11/06 03:09:30;;;;;;;8.15;4.65;;;6.60;99.90;;;;;;5011641;28;20072;-74
2021/11/06 03:11:57;;;;;;;6.63;4.40;;;6.50;99.90;;;;;;5012795;28;20458;-74
2021/11/06 03:14:25;;;;;;;9.47;4.83;;;6.60;99.90;;;;;;5011540;28;20037;-74
2021/11/06 03:16:50;;;;;;;11.43;4.93;;;6.50;99.90;;;;;;5012801;28;20029;-74
2021/11/06 03:19:16;;;;;;;8.90;5.18;;;6.60;99.90;;;;;;5011128;28;20084;-74
2021/11/06 03:21:43;;;;;;;8.63;5.05;;;6.50;99.90;;;;;;5011692;28;20159;-75
2021/11/06 03:24:09;;;;;;;8.33;4.97;;;6.50;99.90;;;;;;5011081;28;20500;-74
2021/11/06 03:26:35;;;;;;;8.40;5.22;;;6.50;99.90;;;;;;5011425;28;20120;-74
2021/11/06 03:29:00;;;;;;;7.83;4.70;;;6.50;99.90;;;;;;5011093;28;20025;-75
2021/11/06 03:31:26;;;;;;;7.20;4.90;;;6.50;99.90;;;;;;5013286;28;20362;-73
2021/11/06 03:33:52;;;;;;;8.97;4.97;;;6.40;99.90;;;;;;5016453;28;20065;-74
2021/11/06 03:36:18;;;;;;;9.20;5.03;;;6.30;99.90;;;;;;5015154;28;20030;-74
2021/11/06 03:38:44;;;;;;;13.73;5.27;;;6.20;99.90;;;;;;5015196;28;20363;-74
2021/11/06 03:41:10;;;;;;;8.73;5.30;;;6.20;99.90;;;;;;5015768;28;20351;-74
2021/11/06 03:43:36;;;;;;;8.50;4.60;;;6.10;99.90;;;;;;5016291;28;20033;-73
2021/11/06 03:46:01;;;;;;;11.20;4.87;;;6.10;99.90;;;;;;5014713;28;20072;-73
2021/11/06 03:48:28;;;;;;;8.73;4.97;;;6.10;99.90;;;;;;5016177;28;20026;-73
2021/11/06 03:50:54;;;;;;;8.97;4.60;;;6.00;99.90;;;;;;5014987;28;20026;-73
2021/11/06 03:53:20;;;;;;;9.63;4.57;;;6.00;99.90;;;;;;5014540;28;20029;-72
2021/11/06 03:55:45;;;;;;;8.90;5.57;;;5.90;99.90;;;;;;5015959;28;20087;-73
2021/11/06 03:58:11;;;;;;;9.20;4.83;;;5.90;99.90;;;;;;5015533;28;20018;-73
2021/11/06 04:00:37;;;;;;;7.07;4.60;;;5.90;99.90;;;;;;5014514;28;20125;-74
2021/11/06 04:03:02;;;;;;;8.17;4.80;;;5.80;99.90;;;;;;5015094;28;20117;-72
2021/11/06 04:05:28;;;;;;;12.70;4.93;;;5.70;99.90;;;;;;5015878;28;20033;-72
2021/11/06 04:07:54;;;;;;;7.40;4.30;;;5.70;99.90;;;;;;5015877;28;20022;-72
2021/11/06 04:10:20;;;;;;;7.40;4.43;;;5.70;99.90;;;;;;5014576;28;20025;-72
2021/11/06 04:12:45;;;;;;;7.07;4.47;;;5.60;99.90;;;;;;5014474;28;20018;-72
2021/11/06 04:15:12;;;;;;;6.83;4.57;;;5.50;99.90;;;;;;5013865;28;20022;-73
2021/11/06 04:17:39;;;;;;;10.80;4.30;;;5.60;99.90;;;;;;5014358;28;20021;-72
2021/11/06 04:20:06;;;;;;;8.73;4.63;;;5.60;99.90;;;;;;5013758;28;20061;-73
2021/11/06 04:22:32;;;;;;;6.90;4.23;;;5.50;99.90;;;;;;5013951;28;20029;-72
2021/11/06 04:24:57;;;;;;;9.87;4.07;;;5.50;99.90;;;;;;5014870;28;20022;-72
2021/11/06 04:27:23;;;;;;;7.57;4.10;;;5.50;99.90;;;;;;5014121;28;20034;-73
2021/11/06 04:29:49;;;;;;;7.63;4.40;;;5.50;99.90;;;;;;5015700;28;20053;-72
2021/11/06 04:32:15;;;;;;;6.93;4.37;;;5.50;99.90;;;;;;5013352;28;20075;-73
2021/11/06 04:34:41;;;;;;;8.30;4.10;;;5.40;99.90;;;;;;5014102;28;20022;-72
2021/11/06 04:37:06;;;;;;;6.60;4.10;;;5.40;99.90;;;;;;5013497;28;20030;-72
2021/11/06 04:39:32;;;;;;;7.60;4.20;;;5.40;99.90;;;;;;5014017;28;20058;-73
2021/11/06 04:41:58;;;;;;;6.97;4.43;;;5.30;99.90;;;;;;5013389;28;20472;-74
2021/11/06 04:44:23;;;;;;;6.73;4.50;;;5.20;99.90;;;;;;5013977;28;20022;-73
2021/11/06 04:46:49;;;;;;;6.27;4.03;;;5.10;99.90;;;;;;5014831;28;20383;-73
2021/11/06 04:49:15;;;;;;;8.90;4.70;;;5.10;99.90;;;;;;5013411;28;20028;-74
2021/11/06 04:51:40;;;;;;;6.27;4.10;;;5.20;99.90;;;;;;5015050;28;20022;-73
2021/11/06 04:54:06;;;;;;;7.07;4.30;;;5.10;99.90;;;;;;5013128;28;20057;-72
2021/11/06 04:56:32;;;;;;;7.63;4.50;;;5.10;99.90;;;;;;5029845;28;20044;-73
2021/11/06 04:58:58;;;;;;;7.73;4.13;;;5.00;99.90;;;;;;5013489;28;20053;-73
2021/11/06 05:01:23;;;;;;;8.07;4.40;;;4.90;99.90;;;;;;5013564;28;20030;-72
2021/11/06 05:03:49;;;;;;;9.30;4.77;;;4.90;99.90;;;;;;5014780;28;20022;-73
2021/11/06 05:06:15;;;;;;;8.40;4.40;;;4.80;99.90;;;;;;5014329;28;20109;-73
2021/11/06 05:08:40;;;;;;;7.77;4.70;;;4.80;99.90;;;;;;5014716;28;20022;-73
2021/11/06 05:11:06;;;;;;;5.60;3.87;;;4.80;99.90;;;;;;5012975;28;20022;-73
2021/11/06 05:13:32;;;;;;;6.70;4.03;;;4.70;99.90;;;;;;5029909;28;20058;-73
2021/11/06 05:15:58;;;;;;;7.33;4.30;;;4.70;99.90;;;;;;5013367;28;20474;-73
2021/11/06 05:18:24;;;;;;;9.33;4.50;;;4.70;99.90;;;;;;5029253;28;20024;-73
2021/11/06 05:20:51;;;;;;;9.63;4.73;;;4.80;99.90;;;;;;5014854;28;20025;-73
2021/11/06 05:23:16;;;;;;;6.93;3.77;;;4.80;99.90;;;;;;5012752;28;20026;-73
2021/11/06 05:25:44;;;;;;;10.50;4.40;;;4.90;99.90;;;;;;5014621;28;20029;-73
2021/11/06 05:28:11;;;;;;;6.87;4.00;;;4.90;99.90;;;;;;5012643;28;20048;-74
2021/11/06 05:30:37;;;;;;;5.67;3.53;;;4.90;99.90;;;;;;5013030;28;20022;-74
2021/11/06 05:33:03;;;;;;;8.63;3.80;;;4.80;99.90;;;;;;5029185;28;20411;-74
2021/11/06 05:35:29;;;;;;;6.53;3.90;;;4.80;99.90;;;;;;5013959;28;20451;-74
2021/11/06 05:37:55;;;;;;;5.17;3.30;;;4.80;99.90;;;;;;5012972;28;20028;-73
2021/11/06 05:40:20;;;;;;;7.27;4.30;;;4.90;99.90;;;;;;5029047;28;20257;-74
2021/11/06 05:42:46;;;;;;;6.67;3.70;;;4.90;99.90;;;;;;5013851;28;20022;-73
2021/11/06 05:45:12;;;;;;;6.07;4.00;;;4.80;99.90;;;;;;5028795;28;20108;-74
2021/11/06 05:47:38;;;;;;;10.57;4.30;;;4.70;99.90;;;;;;5012863;28;20033;-74
2021/11/06 05:50:06;;;;;;;6.53;3.80;;;4.70;99.90;;;;;;5012374;28;20370;-74
2021/11/06 05:52:33;;;;;;;6.77;3.80;;;4.70;99.90;;;;;;5012484;28;20029;-74
2021/11/06 05:54:58;;;;;;;8.67;3.93;;;4.70;99.90;;;;;;5028601;28;20022;-74
2021/11/06 05:57:24;;;;;;;7.70;4.20;;;4.50;99.90;;;;;;5013250;28;20045;-74
2021/11/06 05:59:50;;;;;;;5.67;3.87;;;4.50;99.90;;;;;;5013726;28;20052;-74
2021/11/06 06:02:16;;;;;;;6.77;4.03;;;4.40;99.90;;;;;;5013321;28;20025;-73
2021/11/06 06:04:41;;;;;;;9.37;4.00;;;4.40;99.90;;;;;;5012509;28;20371;-73
2021/11/06 06:07:07;;;;;;;7.57;3.77;;;4.40;99.90;;;;;;5012849;28;20053;-74
2021/11/06 06:09:33;;;;;;;5.50;3.87;;;4.40;99.90;;;;;;5012483;28;20398;-73
2021/11/06 06:11:58;;;;;;;6.53;3.90;;;4.30;99.90;;;;;;5028874;28;20032;-75
2021/11/06 06:14:24;;;;;;;7.87;4.27;;;4.30;99.90;;;;;;5011846;28;20053;-73
2021/11/06 06:16:50;;;;;;;8.90;4.23;;;4.20;99.90;;;;;;5013466;28;20371;-73
2021/11/06 06:19:15;;;;;;;5.43;3.57;;;4.20;99.90;;;;;;5012588;28;20022;-73
2021/11/06 06:21:41;;;;;;;6.67;3.60;;;4.20;99.90;;;;;;5012309;28;20025;-74
2021/11/06 06:24:07;;;;;;;5.57;3.70;;;4.20;99.90;;;;;;5011698;28;20068;-74
2021/11/06 06:26:32;;;;;;;6.10;3.37;;;4.20;99.90;;;;;;5011761;28;20440;-74
2021/11/06 06:28:58;;;;;;;5.53;3.40;;;4.10;99.90;;;;;;5012120;28;20045;-74
2021/11/06 06:31:23;;;;;;;5.90;3.60;;;4.20;99.90;;;;;;5011517;28;20068;-74
2021/11/06 06:33:49;;;;;;;5.70;3.70;;;4.30;99.90;;;;;;5011718;28;20048;-75
2021/11/06 06:36:15;;;;;;;7.37;3.80;;;4.20;99.90;;;;;;5027852;28;20029;-74
2021/11/06 06:38:40;;;;;;;9.70;3.83;;;4.20;99.90;;;;;;5013173;28;20025;-73
2021/11/06 06:41:06;;;;;;;7.20;3.60;;;4.20;99.90;;;;;;5027799;28;20021;-75
2021/11/06 06:43:33;;;;;;;8.53;3.77;;;4.20;99.90;;;;;;5013071;28;20022;-74
2021/11/06 06:45:58;;;;;;;6.43;4.07;;;4.30;99.90;;;;;;5028413;28;20061;-74
2021/11/06 06:48:24;;;;;;;7.27;4.07;;;4.30;99.90;;;;;;5012257;28;20279;-74
2021/11/06 06:50:50;;;;;;;7.63;4.30;;;4.30;99.90;;;;;;5028342;28;20022;-74
2021/11/06 06:53:17;;;;;;;9.90;4.37;;;4.40;99.90;;;;;;5027507;28;20033;-74
2021/11/06 06:55:44;;;;;;;11.40;5.20;;;4.40;99.90;;;;;;5028242;28;20177;-74
2021/11/06 06:58:11;;;;;;;10.30;4.40;;;4.50;99.90;;;;;;5012491;28;20033;-74
2021/11/06 07:00:36;;;;;;;9.40;4.70;;;4.40;99.90;;;;;;5012586;28;20056;-74
2021/11/06 07:03:03;;;;;;;8.03;4.73;;;4.50;99.90;;;;;;5013026;28;20100;-74
2021/11/06 07:05:29;;;;;;;8.50;4.50;;;4.50;99.90;;;;;;5027925;28;20121;-74
2021/11/06 07:07:57;;;;;;;7.80;4.73;;;4.40;99.90;;;;;;5032043;28;20030;-74
2021/11/06 07:10:24;;;;;;;7.17;4.63;;;4.50;99.90;;;;;;5015064;28;20026;-73
2021/11/06 07:12:49;;;;;;;10.90;5.00;;;4.50;99.90;;;;;;5031832;28;20524;-72
2021/11/06 07:15:15;;;;;;;7.23;4.40;;;4.50;99.90;;;;;;5016182;28;20018;-74
2021/11/06 07:17:41;;;;;;;7.33;4.60;;;4.50;99.90;;;;;;5032142;28;20509;-74
2021/11/06 07:20:08;;;;;;;8.43;4.87;;;4.50;99.90;;;;;;5014989;28;20076;-75
2021/11/06 07:22:35;;;;;;;9.27;5.27;;;4.50;99.90;;;;;;5014908;28;20022;-74
2021/11/06 07:25:02;;;;;;;11.53;5.20;;;4.50;99.90;;;;;;5009445;28;20034;-77
2021/11/06 07:27:28;;;;;;;23.53;9.03;;;4.50;99.90;;;;;;5013146;28;20521;-75
2021/11/06 07:29:54;;;;;;;15.43;6.20;;;4.60;99.90;;;;;;5013090;28;20454;-74
2021/11/06 07:32:19;;;;;;;17.70;5.90;;;4.60;99.90;;;;;;5013134;28;20076;-74
2021/11/06 07:34:45;;;;;;;16.77;6.07;;;4.60;99.90;;;;;;5012013;28;20033;-74
2021/11/06 07:37:11;;;;;;;18.23;7.03;;;4.70;99.90;;;;;;5012491;28;20038;-74
2021/11/06 07:39:37;;;;;;;52.33;8.10;;;4.80;99.90;;;;;;5012197;28;20026;-74
2021/11/06 07:42:03;;;;;;;20.30;6.23;;;4.80;99.90;;;;;;5011856;28;20025;-73
2021/11/06 07:44:29;;;;;;;25.70;6.67;;;4.90;99.90;;;;;;5011273;28;20113;-75
2021/11/06 07:46:54;;;;;;;20.27;6.33;;;4.90;99.90;;;;;;5011976;28;20562;-75
2021/11/06 07:49:20;;;;;;;15.80;6.80;;;4.90;99.90;;;;;;5011264;28;20037;-75
2021/11/06 07:51:46;;;;;;;15.23;6.30;;;5.00;99.90;;;;;;5012846;28;20101;-75
2021/11/06 07:54:12;;;;;;;22.17;6.57;;;5.10;99.90;;;;;;5010957;28;20029;-75
2021/11/06 07:56:38;;;;;;;13.23;5.83;;;5.20;99.90;;;;;;5013126;28;20042;-75
2021/11/06 07:59:05;;;;;;;16.20;5.90;;;5.20;99.90;;;;;;5012701;28;20558;-73
2021/11/06 08:01:31;;;;;;;14.03;5.77;;;5.30;99.90;;;;;;5010885;28;20026;-72
2021/11/06 08:03:57;;;;;;;12.83;5.93;;;5.40;99.90;;;;;;5012487;28;20041;-73
2021/11/06 08:06:23;;;;;;;10.77;5.47;;;5.40;99.90;;;;;;5010645;28;20049;-73
2021/11/06 08:08:49;;;;;;;13.43;5.67;;;5.40;99.90;;;;;;5011434;28;20026;-73
2021/11/06 08:11:14;;;;;;;13.00;5.70;;;5.40;99.90;;;;;;5010794;28;20040;-75
2021/11/06 08:13:40;;;;;;;12.10;5.90;;;5.40;99.90;;;;;;5012287;28;20018;-73
2021/11/06 08:16:05;;;;;;;11.37;5.63;;;5.40;99.90;;;;;;5010733;28;20390;-74
2021/11/06 08:18:32;;;;;;;11.43;5.13;;;5.40;99.90;;;;;;5011173;28;20030;-73
2021/11/06 08:20:58;;;;;;;12.50;6.00;;;5.40;99.90;;;;;;5010869;28;20026;-73
2021/11/06 08:23:24;;;;;;;10.97;5.33;;;5.50;99.90;;;;;;5010791;28;20036;-73
2021/11/06 08:25:50;;;;;;;9.47;5.10;;;5.40;99.90;;;;;;5010732;28;20387;-73
2021/11/06 08:28:17;;;;;;;8.87;4.93;;;5.50;99.90;;;;;;5010346;28;20034;-73
2021/11/06 08:30:43;;;;;;;10.47;4.40;;;5.50;99.90;;;;;;5011267;28;20034;-76
2021/11/06 08:33:10;;;;;;;8.37;4.07;;;5.50;99.90;;;;;;5010537;28;20529;-79
2021/11/06 08:35:37;;;;;;;11.20;4.73;;;5.50;99.90;;;;;;5010608;28;20030;-76
2021/11/06 08:38:03;;;;;;;7.83;4.10;;;5.50;99.90;;;;;;5011676;28;20025;-76
2021/11/06 08:40:29;;;;;;;9.43;4.47;;;5.50;99.90;;;;;;5011093;28;20106;-76
2021/11/06 08:42:55;;;;;;;9.57;4.00;;;5.60;99.90;;;;;;5026620;28;20061;-75
2021/11/06 08:45:21;;;;;;;9.20;4.30;;;5.60;99.90;;;;;;5026412;28;20030;-73
2021/11/06 08:47:47;;;;;;;7.97;4.43;;;5.60;99.90;;;;;;5010672;28;20117;-76
2021/11/06 08:50:20;;;;;;;10.37;4.30;;;5.70;99.90;;;;;;5009941;28;20026;-75
2021/11/06 08:52:46;;;;;;;7.37;4.47;;;5.80;99.90;;;;;;5010123;28;20034;-75
2021/11/06 08:55:12;;;;;;;8.37;4.30;;;5.80;99.90;;;;;;5006943;28;20360;-76
2021/11/06 08:57:40;;;;;;;7.20;4.43;;;5.90;99.90;;;;;;5026290;28;20070;-76
2021/11/06 09:00:13;;;;;;;7.03;4.50;;;5.90;99.90;;;;;;5009945;28;20042;-73
2021/11/06 09:02:39;;;;;;;8.07;4.37;;;5.90;99.90;;;;;;5007672;28;20498;-73
2021/11/06 09:05:07;;;;;;;6.47;3.83;;;6.00;99.90;;;;;;5026566;28;20128;-74
2021/11/06 09:07:34;;;;;;;7.87;4.53;;;6.00;99.90;;;;;;5011687;28;20089;-74
2021/11/06 09:10:17;;;;;;;8.03;4.67;;;6.00;99.90;;;;;;5011451;28;20030;-74
2021/11/06 09:12:43;;;;;;;8.73;5.03;;;6.10;99.90;;;;;;5026117;28;20030;-74
2021/11/06 09:15:09;;;;;;;9.47;4.67;;;6.20;99.90;;;;;;5025661;28;20028;-75
2021/11/06 09:17:35;;;;;;;7.17;5.07;;;6.20;99.90;;;;;;5009519;28;20125;-73
2021/11/06 09:20:01;;;;;;;7.23;4.73;;;6.30;99.90;;;;;;5012818;28;20534;-75
2021/11/06 09:22:27;;;;;;;9.37;5.43;;;6.40;99.90;;;;;;5027835;28;20034;-74
2021/11/06 09:24:54;;;;;;;8.47;5.43;;;6.40;99.90;;;;;;5013134;28;20481;-72
2021/11/06 09:27:20;;;;;;;10.57;5.20;;;6.40;99.90;;;;;;5011025;28;20077;-73
2021/11/06 09:29:47;;;;;;;12.07;5.63;;;6.40;99.90;;;;;;5008316;28;20026;-76
2021/11/06 09:32:13;;;;;;;8.77;5.17;;;6.50;99.90;;;;;;5008147;28;20034;-75
2021/11/06 09:34:40;;;;;;;11.23;5.27;;;6.50;99.90;;;;;;5007932;28;20029;-73
2021/11/06 09:37:06;;;;;;;10.53;5.20;;;6.50;99.90;;;;;;5024896;28;20088;-75
2021/11/06 09:39:33;;;;;;;11.07;4.87;;;6.60;99.90;;;;;;5008474;28;20018;-73
2021/11/06 09:42:00;;;;;;;11.13;5.27;;;6.60;99.90;;;;;;5006963;28;20060;-73
2021/11/06 09:44:27;;;;;;;7.93;4.30;;;6.60;99.90;;;;;;5024808;28;20068;-73
2021/11/06 09:46:52;;;;;;;7.70;3.90;;;6.70;99.90;;;;;;5010798;28;20030;-75
2021/11/06 09:49:19;;;;;;;6.87;4.30;;;6.80;99.90;;;;;;5010299;28;20026;-73
2021/11/06 09:51:45;;;;;;;6.90;3.87;;;6.80;99.90;;;;;;5028115;28;20061;-74
2021/11/06 09:54:11;;;;;;;9.17;4.00;;;6.80;99.90;;;;;;5010938;28;20029;-74
2021/11/06 09:56:37;;;;;;;7.17;3.77;;;7.00;99.90;;;;;;5025186;28;20069;-75
2021/11/06 09:59:03;;;;;;;6.50;4.05;;;7.00;99.90;;;;;;5005854;28;20565;-76
2021/11/06 10:01:31;;;;;;;10.32;4.55;;;7.10;99.90;;;;;;5009001;28;20018;-72
2021/11/06 10:03:58;;;;;;;6.75;3.78;;;7.10;99.90;;;;;;5010243;28;20144;-73
2021/11/06 10:06:26;;;;;;;6.10;4.30;;;7.20;99.90;;;;;;5008441;28;20041;-73
2021/11/06 10:08:54;;;;;;;9.13;4.60;;;7.20;99.90;;;;;;5011218;28;20022;-73
2021/11/06 10:11:22;;;;;;;9.63;4.20;;;7.10;99.90;;;;;;5010476;28;20029;-75
2021/11/06 10:13:56;;;;;;;7.65;4.50;;;7.10;99.90;;;;;;5012214;28;20029;-73
2021/11/06 10:16:36;;;;;;;9.83;4.90;;;7.10;99.90;;;;;;5003625;28;20034;-75
2021/11/06 10:19:29;;;;;;;10.23;4.95;;;7.30;99.90;;;;;;5009429;28;20029;-75
2021/11/06 10:22:12;;;;;;;8.00;4.45;;;7.40;99.90;;;;;;5008876;28;20022;-76
2021/11/06 10:24:45;;;;;;;8.65;4.63;;;7.40;99.90;;;;;;5009461;28;20100;-76
2021/11/06 10:27:22;;;;;;;6.95;4.43;;;7.50;99.90;;;;;;5007851;28;20065;-76
2021/11/06 10:30:18;;;;;;;10.20;4.78;;;7.50;99.90;;;;;;5009438;28;20048;-74
2021/11/06 10:33:11;;;;;;;7.07;4.22;;;7.60;99.90;;;;;;5008821;28;20141;-77
2021/11/06 10:35:40;;;;;;;8.55;4.45;;;7.60;99.90;;;;;;4995845;28;20037;-78
2021/11/06 10:38:15;;;;;;;8.80;4.22;;;7.60;99.90;;;;;;5010543;28;20025;-77
2021/11/06 10:40:48;;;;;;;6.93;4.18;;;7.50;99.90;;;;;;5010479;28;20026;-75
2021/11/06 10:43:17;;;;;;;7.00;4.53;;;7.50;99.90;;;;;;5011226;28;20570;-76
2021/11/06 10:45:57;;;;;;;8.52;4.95;;;7.60;99.90;;;;;;5010276;28;20081;-77
2021/11/06 10:48:26;;;;;;;8.95;4.90;;;7.60;99.90;;;;;;5008422;28;20034;-77
2021/11/06 10:51:03;;;;;;;11.60;5.07;;;7.60;99.90;;;;;;5009603;28;20026;-76
2021/11/06 10:53:54;;;;;;;8.65;4.50;;;7.60;99.90;;;;;;5010086;28;20030;-75
2021/11/06 10:56:32;;;;;;;7.65;4.72;;;7.70;99.90;;;;;;5006202;28;20144;-77
2021/11/06 10:59:04;;;;;;;8.70;4.97;;;7.60;99.90;;;;;;5021269;28;20050;-78
2021/11/06 11:01:34;;;;;;;8.82;5.28;;;7.60;99.90;;;;;;4997729;28;20022;-74
2021/11/06 11:04:08;;;;;;;9.02;5.50;;;7.60;99.90;;;;;;5007343;28;20391;-75
2021/11/06 11:06:38;;;;;;;9.80;4.72;;;7.70;99.90;;;;;;5008292;28;20150;-74
2021/11/06 11:09:09;;;;;;;7.82;4.95;;;7.70;99.90;;;;;;5007375;28;20030;-74
2021/11/06 11:11:34;;;;;;;8.93;4.75;;;7.70;99.90;;;;;;5008174;28;20458;-75
2021/11/06 11:14:04;;;;;;;10.57;5.80;;;7.80;99.90;;;;;;5007715;28;20037;-74
2021/11/06 11:16:33;;;;;;;9.45;5.88;;;7.80;99.90;;;;;;5007852;28;20048;-74
2021/11/06 11:19:12;;;;;;;11.45;5.63;;;7.90;99.90;;;;;;5008041;28;20330;-75
2021/11/06 11:21:44;;;;;;;10.07;5.15;;;8.00;99.90;;;;;;4999168;28;20033;-76
2021/11/06 11:24:11;;;;;;;7.97;4.40;;;8.00;99.90;;;;;;5007260;28;20057;-77
2021/11/06 11:26:45;;;;;;;8.90;5.00;;;8.10;99.90;;;;;;5007496;28;20038;-77
2021/11/06 11:29:14;;;;;;;11.50;5.57;;;8.10;99.90;;;;;;5007105;28;20037;-75
2021/11/06 11:31:42;;;;;;;9.02;5.45;;;8.20;99.90;;;;;;5007744;28;20029;-74
2021/11/06 11:34:09;;;;;;;9.95;5.32;;;8.20;99.90;;;;;;5022655;28;20109;-76
2021/11/06 11:36:37;;;;;;;11.43;4.97;;;8.20;99.90;;;;;;5023557;28;20030;-74
2021/11/06 11:39:06;;;;;;;9.57;5.25;;;8.30;99.90;;;;;;5008272;28;20037;-74
2021/11/06 11:41:46;;;;;;;10.43;4.78;;;8.40;99.40;;;;;;5008763;28;20079;-74
2021/11/06 11:44:34;;;;;;;7.32;4.45;;;8.50;99.30;;;;;;5021457;28;20044;-73
2021/11/06 11:47:10;;;;;;;8.82;4.43;;;8.60;98.80;;;;;;5003892;28;20029;-73
2021/11/06 11:49:43;;;;;;;7.53;4.97;;;8.70;98.70;;;;;;5002925;28;20041;-73
2021/11/06 11:52:26;;;;;;;8.25;4.32;;;8.90;98.60;;;;;;5011536;28;20053;-75
2021/11/06 11:55:12;;;;;;;8.98;5.38;;;9.00;98.70;;;;;;4998711;28;20036;-75
2021/11/06 11:57:42;;;;;;;9.32;5.00;;;9.30;99.00;;;;;;5015429;28;20104;-73
2021/11/06 12:00:17;;;;;;;8.60;4.95;;;9.60;98.50;;;;;;5014382;28;20046;-78
2021/11/06 12:03:02;;;;;;;89.88;44.50;;;9.90;97.60;;;;;;5014233;28;20017;-74
2021/11/06 12:05:37;;;;;;;29.30;14.93;;;10.20;97.00;;;;;;5015557;28;20780;-77
2021/11/06 12:08:29;;;;;;;11.57;6.72;;;10.50;96.30;;;;;;5031246;28;20080;-77
2021/11/06 12:11:11;;;;;;;11.70;6.00;;;10.70;96.20;;;;;;5025213;28;20041;-77
2021/11/06 12:13:39;;;;;;;7.82;5.47;;;10.90;95.90;;;;;;5015559;28;20156;-78
2021/11/06 12:16:09;;;;;;;9.27;5.63;;;11.10;95.50;;;;;;5015220;28;20402;-78
2021/11/06 12:18:43;;;;;;;8.15;4.82;;;11.20;95.10;;;;;;5030496;28;20018;-76
2021/11/06 12:21:15;;;;;;;9.30;6.05;;;11.40;94.70;;;;;;5013486;28;20030;-73
2021/11/06 12:24:10;;;;;;;9.57;5.70;;;11.40;94.40;;;;;;5013767;28;20033;-74
2021/11/06 12:26:54;;;;;;;10.35;5.75;;;11.50;94.10;;;;;;5013804;28;20380;-74
2021/11/06 12:29:26;;;;;;;12.05;6.13;;;11.60;93.90;;;;;;5012805;28;20022;-73
2021/11/06 12:32:06;;;;;;;9.65;6.38;;;11.70;94.00;;;;;;5013431;28;20026;-74
2021/11/06 12:34:43;;;;;;;9.73;6.35;;;11.80;93.70;;;;;;5011649;28;20076;-74
2021/11/06 12:37:12;;;;;;;10.65;6.57;;;12.00;93.30;;;;;;5013088;28;20030;-76
2021/11/06 12:39:54;;;;;;;11.88;7.05;;;12.30;92.90;;;;;;5013054;28;20160;-74
2021/11/06 12:42:25;;;;;;;10.45;6.43;;;12.70;92.50;;;;;;5043913;28;20463;-74
2021/11/06 12:44:55;;;;;;;12.00;7.20;;;13.10;91.60;;;;;;5014056;28;20117;-74
2021/11/06 12:47:21;;;;;;;15.80;9.18;;;13.60;91.00;;;;;;5029072;28;20433;-74
2021/11/06 12:49:49;;;;;;;14.07;8.43;;;14.00;90.50;;;;;;5012512;28;20114;-74
2021/11/06 12:52:16;;;;;;;13.13;7.72;;;14.40;89.30;;;;;;5012196;28;20479;-75
2021/11/06 12:54:42;;;;;;;13.02;7.47;;;14.70;87.90;;;;;;5012427;28;20049;-74
2021/11/06 12:57:08;;;;;;;11.68;6.43;;;14.90;86.80;;;;;;5012636;28;20045;-74